Time;durP1;ratioP1;P1;durP2;ratioP2;P2;SDS_P1;SDS_P2;PMS_P1;PMS_P2;Temp;Humidity;BMP_temperature;BMP_pressure;BME280_temperature;BME280_humidity;BME280_pressure;Samples;Min_cycle;Max_cycle;Signal;HPM_P1;HPM_P2
2022/05/28 00:01:01;;;;;;;12.98;6.43;;;;;;;18.69;64.83;94614.03;5134063;27;20027;-72
2022/05/28 00:03:27;;;;;;;8.25;6.28;;;;;;;18.57;64.73;94604.13;5133670;27;20047;-72
2022/05/28 00:05:52;;;;;;;10.20;6.22;;;;;;;18.53;65.09;94619.47;5133898;27;20428;-72
2022/05/28 00:08:18;;;;;;;10.10;6.55;;;;;;;18.44;65.78;94607.38;5134070;27;20142;-72
2022/05/28 00:10:44;;;;;;;10.93;6.47;;;;;;;18.51;65.70;94611.72;5116695;27;20031;-72
2022/05/28 00:13:10;;;;;;;8.82;5.95;;;;;;;18.52;65.67;94607.28;5133958;27;20052;-72
2022/05/28 00:15:35;;;;;;;9.90;6.60;;;;;;;18.52;65.60;94608.09;5135090;27;20084;-72
2022/05/28 00:18:01;;;;;;;10.57;6.20;;;;;;;18.52;65.58;94599.41;5116716;27;20035;-72
2022/05/28 00:20:26;;;;;;;9.10;6.65;;;;;;;18.55;65.78;94604.28;5133683;27;20032;-72
2022/05/28 00:22:52;;;;;;;9.68;6.38;;;;;;;18.58;65.75;94614.44;5116675;27;20031;-72
2022/05/28 00:25:17;;;;;;;10.50;6.60;;;;;;;18.56;65.85;94613.84;5134822;27;20027;-72
2022/05/28 00:27:43;;;;;;;9.25;6.53;;;;;;;18.52;66.17;94607.28;5133564;27;20571;-72
2022/05/28 00:30:10;;;;;;;9.07;6.60;;;;;;;18.57;65.83;94597.03;5116783;27;20066;-72
2022/05/28 00:32:36;;;;;;;9.50;6.70;;;;;;;18.59;65.82;94596.88;5134918;27;20087;-72
2022/05/28 00:35:02;;;;;;;8.98;6.78;;;;;;;18.56;65.80;94590.16;5133485;27;20031;-73
2022/05/28 00:37:27;;;;;;;9.80;6.55;;;;;;;18.62;65.66;94586.78;5133338;27;20030;-72
2022/05/28 00:39:53;;;;;;;8.63;6.68;;;;;;;18.61;65.69;94574.66;5133322;27;20027;-72
2022/05/28 00:42:18;;;;;;;8.68;6.07;;;;;;;18.59;65.67;94570.56;5134672;27;20027;-72
2022/05/28 00:44:44;;;;;;;8.63;6.50;;;;;;;18.51;65.76;94559.13;5133083;27;20039;-72
2022/05/28 00:47:09;;;;;;;9.40;6.75;;;;;;;18.55;66.00;94570.09;5134487;27;20028;-72
2022/05/28 00:49:35;;;;;;;11.45;7.25;;;;;;;18.49;66.47;94574.28;5116146;27;20034;-72
2022/05/28 00:52:02;;;;;;;9.73;6.55;;;;;;;18.50;66.56;94567.22;5134241;27;20084;-72
2022/05/28 00:54:36;;;;;;;10.15;6.63;;;;;;;18.53;66.17;94556.34;5115980;27;20540;-73
2022/05/28 00:57:02;;;;;;;9.57;6.65;;;;;;;18.55;66.12;94541.16;5133127;27;20034;-72
2022/05/28 00:59:28;;;;;;;10.10;6.25;;;;;;;18.58;65.54;94543.44;5132247;27;20038;-73
2022/05/28 01:01:56;;;;;;;8.45;6.38;;;;;;;18.52;65.44;94550.22;5132996;27;20294;-73
2022/05/28 01:04:48;;;;;;;10.30;6.85;;;;;;;18.48;65.35;94532.38;5116075;27;20035;-72
2022/05/28 01:07:31;;;;;;;8.38;6.20;;;;;;;18.49;65.42;94539.28;5133886;27;20160;-72
2022/05/28 01:10:03;;;;;;;6.65;5.72;;;;;;;18.51;65.54;94532.03;5134029;27;20038;-71
2022/05/28 01:13:05;;;;;;;7.05;6.03;;;;;;;18.51;65.33;94538.09;5134091;27;20031;-72
2022/05/28 01:15:43;;;;;;;9.32;6.13;;;;;;;18.53;65.41;94540.56;5133906;27;20828;-72
2022/05/28 01:18:18;;;;;;;10.73;5.82;;;;;;;18.21;65.73;94553.03;5116071;27;20027;-72
2022/05/28 01:20:50;;;;;;;9.95;6.20;;;;;;;18.11;66.27;94568.28;5115719;27;20027;-72
2022/05/28 01:23:24;;;;;;;11.18;6.68;;;;;;;18.08;66.52;94589.66;5132643;27;20031;-72
2022/05/28 01:26:04;;;;;;;9.00;6.55;;;;;;;17.86;67.36;94589.50;5133555;27;20080;-72
2022/05/28 01:28:33;;;;;;;10.88;7.13;;;;;;;17.79;67.70;94598.28;5132647;27;20031;-72
2022/05/28 01:30:58;;;;;;;9.20;6.97;;;;;;;17.90;67.27;94599.66;5132351;27;20034;-72
2022/05/28 01:33:24;;;;;;;9.38;6.50;;;;;;;17.87;67.27;94621.84;5098286;27;20027;-72
2022/05/28 01:35:49;;;;;;;10.80;6.60;;;;;;;17.83;67.45;94646.88;5115173;27;20076;-72
2022/05/28 01:38:15;;;;;;;9.18;7.03;;;;;;;17.91;67.28;94680.13;5132314;27;20046;-72
2022/05/28 01:40:40;;;;;;;10.02;6.32;;;;;;;17.90;67.06;94665.34;5115009;27;20038;-72
2022/05/28 01:43:07;;;;;;;8.20;5.65;;;;;;;17.82;66.11;94685.44;5132353;27;20295;-72
2022/05/28 01:45:33;;;;;;;10.52;6.20;;;;;;;17.86;65.52;94678.84;5114925;27;20038;-72
2022/05/28 01:47:59;;;;;;;7.70;5.20;;;;;;;17.82;65.19;94667.03;5114988;27;20456;-71
2022/05/28 01:50:25;;;;;;;7.68;5.72;;;;;;;17.88;64.76;94654.19;5132069;27;20505;-73
2022/05/28 01:52:50;;;;;;;9.60;4.85;;;;;;;17.84;64.10;94651.91;5114978;27;20027;-72
2022/05/28 01:55:16;;;;;;;9.02;5.28;;;;;;;17.90;63.99;94652.22;5114770;27;20485;-73
2022/05/28 01:57:42;;;;;;;9.68;5.13;;;;;;;17.89;63.90;94643.53;5131809;27;20023;-72
2022/05/28 02:00:09;;;;;;;5.88;4.50;;;;;;;17.91;64.07;94653.84;5133089;27;20035;-72
2022/05/28 02:02:35;;;;;;;6.07;4.40;;;;;;;17.94;63.99;94651.69;5131539;27;20439;-72
2022/05/28 02:05:00;;;;;;;7.10;4.60;;;;;;;17.95;63.94;94639.38;5114746;27;20027;-71
2022/05/28 02:07:25;;;;;;;7.25;4.20;;;;;;;17.92;63.79;94637.09;5097564;27;20038;-72
2022/05/28 02:09:58;;;;;;;7.90;4.82;;;;;;;17.92;64.56;94631.84;5131092;27;20031;-72
2022/05/28 02:12:32;;;;;;;7.10;4.78;;;;;;;17.86;64.29;94623.66;5097685;27;20031;-72
2022/05/28 02:15:15;;;;;;;10.00;5.10;;;;;;;17.96;65.00;94648.88;5115015;27;20480;-72
2022/05/28 02:17:47;;;;;;;10.80;4.53;;;;;;;17.65;65.93;94652.34;5131364;27;20035;-72
2022/05/28 02:20:19;;;;;;;5.65;4.78;;;;;;;17.69;65.60;94648.41;5132798;27;20023;-72
2022/05/28 02:22:57;;;;;;;7.07;4.45;;;;;;;17.69;65.42;94643.16;5115003;27;20063;-72
2022/05/28 02:25:28;;;;;;;6.82;4.50;;;;;;;17.61;65.53;94664.22;5132569;27;20106;-72
2022/05/28 02:27:53;;;;;;;9.75;5.07;;;;;;;17.55;65.37;94649.13;5114952;27;20048;-72
2022/05/28 02:30:19;;;;;;;8.25;4.90;;;;;;;17.57;65.36;94650.59;5132551;27;20031;-72
2022/05/28 02:32:44;;;;;;;6.90;4.82;;;;;;;17.55;65.23;94646.50;5131083;27;20039;-72
2022/05/28 02:35:10;;;;;;;8.80;4.78;;;;;;;17.59;65.49;94658.31;5114137;27;20023;-72
2022/05/28 02:37:35;;;;;;;6.90;4.85;;;;;;;17.56;66.04;94650.78;5131294;27;20145;-72
2022/05/28 02:40:01;;;;;;;7.47;4.50;;;;;;;17.57;65.30;94647.16;5132345;27;20481;-72
2022/05/28 02:42:27;;;;;;;6.45;5.00;;;;;;;17.62;65.45;94650.06;5132475;27;20053;-71
2022/05/28 02:44:52;;;;;;;8.38;4.75;;;;;;;17.68;64.91;94646.75;5096929;27;20075;-73
2022/05/28 02:47:17;;;;;;;8.07;4.75;;;;;;;17.71;65.40;94638.50;5130846;27;20389;-72
2022/05/28 02:49:43;;;;;;;7.88;4.97;;;;;;;17.72;65.64;94634.91;5113880;27;20027;-72
2022/05/28 02:52:08;;;;;;;6.13;4.60;;;;;;;17.72;65.11;94631.44;5131062;27;20035;-71
2022/05/28 02:54:34;;;;;;;6.53;4.65;;;;;;;17.72;63.97;94619.16;5113899;28;20034;-72
2022/05/28 02:56:59;;;;;;;7.60;4.68;;;;;;;17.82;64.16;94626.81;5096696;27;20066;-72
2022/05/28 02:59:25;;;;;;;5.60;4.32;;;;;;;17.86;63.82;94623.66;5130946;27;20023;-72
2022/05/28 03:01:51;;;;;;;7.45;4.85;;;;;;;17.90;63.82;94616.25;5130929;27;20039;-72
2022/05/28 03:04:16;;;;;;;8.45;4.43;;;;;;;17.93;64.36;94608.00;5113357;27;20468;-72
2022/05/28 03:06:42;;;;;;;5.40;4.78;;;;;;;17.96;64.29;94606.84;5113539;27;20043;-72
2022/05/28 03:09:08;;;;;;;6.85;4.40;;;;;;;17.89;64.42;94605.94;5130776;27;20027;-72
2022/05/28 03:11:34;;;;;;;7.97;4.78;;;;;;;17.88;63.72;94635.81;5113675;28;20042;-72
2022/05/28 03:13:59;;;;;;;9.93;5.15;;;;;;;17.84;63.91;94637.97;5130774;28;20027;-73
2022/05/28 03:16:25;;;;;;;10.70;5.30;;;;;;;17.89;64.15;94645.34;5130650;28;20053;-72
2022/05/28 03:18:50;;;;;;;8.02;5.50;;;;;;;17.93;63.71;94638.72;5130577;28;20057;-71
2022/05/28 03:21:16;;;;;;;8.05;5.47;;;;;;;17.91;64.04;94640.69;5113967;27;20076;-72
2022/05/28 03:23:41;;;;;;;9.90;5.53;;;;;;;17.84;63.76;94625.66;5134718;27;20015;-72
2022/05/28 03:26:18;;;;;;;11.48;5.50;;;;;;;17.96;63.27;94619.97;5136095;27;20023;-72
2022/05/28 03:28:44;;;;;;;7.40;5.05;;;;;;;18.05;62.51;94625.00;5117681;27;20027;-72
2022/05/28 03:31:09;;;;;;;9.40;4.72;;;;;;;18.05;62.54;94625.00;5117597;27;20122;-71
2022/05/28 03:33:35;;;;;;;9.07;5.15;;;;;;;18.13;62.23;94631.16;5134532;27;20493;-72
2022/05/28 03:36:00;;;;;;;7.35;4.95;;;;;;;18.21;61.82;94636.34;5134697;27;20023;-72
2022/05/28 03:38:26;;;;;;;6.70;4.50;;;;;;;18.29;61.37;94626.56;5134701;27;20511;-72
2022/05/28 03:40:51;;;;;;;9.05;4.95;;;;;;;18.36;61.51;94633.75;5134529;27;20084;-72
2022/05/28 03:43:17;;;;;;;7.05;4.47;;;;;;;18.37;60.98;94623.06;5136147;27;20031;-73
2022/05/28 03:45:42;;;;;;;9.27;4.70;;;;;;;18.42;60.86;94625.16;5135628;27;20027;-72
2022/05/28 03:48:08;;;;;;;7.68;4.82;;;;;;;18.49;60.33;94616.34;5135979;27;20434;-72
2022/05/28 03:50:34;;;;;;;7.75;4.22;;;;;;;18.53;60.29;94611.56;5100212;27;20110;-72
2022/05/28 03:52:59;;;;;;;6.53;4.70;;;;;;;18.53;60.91;94603.69;5134268;27;20157;-72
2022/05/28 03:55:25;;;;;;;8.25;4.45;;;;;;;18.57;60.57;94607.56;5134537;27;20031;-72
2022/05/28 03:57:50;;;;;;;11.98;5.10;;;;;;;18.57;60.97;94604.94;5136012;27;20031;-72
2022/05/28 04:00:16;;;;;;;7.05;4.40;;;;;;;18.52;60.37;94591.50;5135536;27;20038;-72
2022/05/28 04:02:42;;;;;;;8.85;4.43;;;;;;;18.48;60.74;94595.50;5099822;27;20492;-72
2022/05/28 04:05:07;;;;;;;8.45;4.65;;;;;;;18.49;61.07;94600.56;5134178;27;20023;-72
2022/05/28 04:07:33;;;;;;;9.25;4.97;;;;;;;18.50;60.87;94594.34;5116695;27;20039;-72
2022/05/28 04:09:58;;;;;;;9.38;4.82;;;;;;;18.48;60.83;94590.25;5117007;27;20035;-72
2022/05/28 04:12:24;;;;;;;7.63;4.55;;;;;;;18.52;60.66;94591.50;5134090;27;20031;-72
2022/05/28 04:14:49;;;;;;;8.50;4.80;;;;;;;18.50;60.60;94583.81;5133915;27;20404;-72
2022/05/28 04:17:15;;;;;;;7.03;4.38;;;;;;;18.51;60.54;94585.44;5133986;27;20054;-72
2022/05/28 04:19:40;;;;;;;7.63;4.10;;;;;;;18.56;60.49;94576.19;5133926;27;20502;-73
2022/05/28 04:22:06;;;;;;;8.48;4.40;;;;;;;18.47;60.99;94578.06;5116585;27;20072;-72
2022/05/28 04:24:32;;;;;;;6.35;4.43;;;;;;;18.49;61.11;94581.34;5116576;27;20453;-72
2022/05/28 04:26:58;;;;;;;8.43;4.50;;;;;;;18.53;60.66;94569.47;5135190;27;20035;-72
2022/05/28 04:29:23;;;;;;;8.05;4.78;;;;;;;18.44;60.98;94563.50;5116510;27;20488;-72
2022/05/28 04:31:48;;;;;;;6.07;4.25;;;;;;;18.59;61.10;94571.38;5116340;27;20031;-72
2022/05/28 04:34:14;;;;;;;9.13;4.57;;;;;;;18.57;61.17;94591.78;5133631;27;20019;-72
2022/05/28 04:36:39;;;;;;;5.57;4.15;;;;;;;18.56;61.23;94592.78;5133372;27;20043;-72
2022/05/28 04:39:05;;;;;;;7.20;4.50;;;;;;;18.65;61.05;94617.19;5133485;27;20035;-72
2022/05/28 04:41:30;;;;;;;6.80;4.60;;;;;;;18.73;61.02;94646.03;5133473;27;20031;-72
2022/05/28 04:43:56;;;;;;;11.32;4.95;;;;;;;18.57;62.77;94668.06;5134453;27;20473;-72
2022/05/28 04:46:21;;;;;;;7.63;5.10;;;;;;;18.57;62.73;94662.81;5133250;27;20023;-72
2022/05/28 04:48:47;;;;;;;6.40;4.35;;;;;;;18.55;61.61;94609.56;5133215;27;20022;-72
2022/05/28 04:51:12;;;;;;;9.98;4.30;;;;;;;18.52;60.74;94579.16;5133192;27;20027;-72
2022/05/28 04:53:38;;;;;;;6.30;4.20;;;;;;;18.57;61.02;94568.09;5132970;27;20030;-72
2022/05/28 04:56:04;;;;;;;6.13;4.53;;;;;;;18.69;60.99;94578.97;5133114;27;20030;-71
2022/05/28 04:58:29;;;;;;;5.55;4.20;;;;;;;18.71;60.99;94595.41;5132972;27;20043;-72
2022/05/28 05:00:55;;;;;;;8.63;4.32;;;;;;;18.81;60.98;94606.50;5134410;27;20030;-72
2022/05/28 05:03:20;;;;;;;9.10;4.78;;;;;;;18.90;61.00;94615.13;5132603;27;20043;-73
2022/05/28 05:05:46;;;;;;;9.60;5.28;;;;;;;18.99;61.20;94621.91;5134118;27;20080;-73
2022/05/28 05:08:11;;;;;;;8.60;5.30;;;;;;;19.05;61.92;94629.06;5133115;27;20050;-72
2022/05/28 05:10:37;;;;;;;10.35;4.90;;;;;;;19.07;62.17;94628.91;5132942;27;20023;-72
2022/05/28 05:13:02;;;;;;;7.63;4.95;;;;;;;19.08;62.58;94638.41;5132648;27;20031;-72
2022/05/28 05:15:28;;;;;;;8.68;5.55;;;;;;;19.05;62.78;94654.59;5132982;27;20024;-72
2022/05/28 05:17:53;;;;;;;8.52;5.65;;;;;;;18.96;66.04;94680.19;5134282;27;20027;-72
2022/05/28 05:20:19;;;;;;;11.55;5.53;;;;;;;18.93;66.76;94668.19;5115475;27;20039;-72
2022/05/28 05:22:44;;;;;;;9.10;5.20;;;;;;;18.81;67.64;94667.03;5132756;27;20035;-72
2022/05/28 05:25:10;;;;;;;9.07;6.15;;;;;;;18.56;66.60;94653.28;5132713;27;20028;-72
2022/05/28 05:27:36;;;;;;;10.73;6.50;;;;;;;18.33;67.50;94658.59;5132579;27;20029;-72
2022/05/28 05:30:02;;;;;;;12.73;6.45;;;;;;;18.22;68.14;94665.09;5133800;27;20027;-72
2022/05/28 05:32:27;;;;;;;8.93;6.13;;;;;;;18.19;69.06;94660.22;5115482;27;20027;-72
2022/05/28 05:34:53;;;;;;;10.25;5.72;;;;;;;18.24;69.83;94649.13;5132772;27;20079;-72
2022/05/28 05:37:18;;;;;;;9.88;6.30;;;;;;;18.19;69.88;94639.19;5115423;27;20067;-72
2022/05/28 05:39:44;;;;;;;11.50;7.05;;;;;;;18.11;69.07;94647.13;5132223;27;20027;-72
2022/05/28 05:42:10;;;;;;;7.32;5.43;;;;;;;18.07;69.14;94635.31;5132343;27;20031;-72
2022/05/28 05:44:36;;;;;;;9.30;5.93;;;;;;;18.16;69.22;94639.50;5132079;27;20027;-72
2022/05/28 05:47:01;;;;;;;10.55;5.90;;;;;;;18.15;69.84;94634.44;5133608;27;20023;-72
2022/05/28 05:49:27;;;;;;;8.10;5.90;;;;;;;18.30;70.03;94648.41;5114915;27;20045;-72
2022/05/28 05:51:52;;;;;;;9.05;6.15;;;;;;;18.23;70.50;94639.63;5133449;27;20023;-72
2022/05/28 05:54:19;;;;;;;10.18;5.93;;;;;;;18.37;69.91;94645.91;5132042;27;20031;-72
2022/05/28 05:56:45;;;;;;;9.32;6.32;;;;;;;18.46;69.34;94632.50;5115164;27;20023;-72
2022/05/28 05:59:10;;;;;;;8.70;5.47;;;;;;;18.59;68.36;94642.41;5097945;27;20519;-72
2022/05/28 06:01:35;;;;;;;9.50;5.63;;;;;;;18.67;68.34;94644.94;5133169;27;20397;-72
2022/05/28 06:04:01;;;;;;;11.90;6.40;;;;;;;18.72;67.73;94632.06;5114934;27;20079;-72
2022/05/28 06:06:26;;;;;;;8.20;5.45;;;;;;;19.04;68.12;94637.16;5133278;27;20092;-72
2022/05/28 06:08:52;;;;;;;7.38;5.60;;;;;;;19.24;67.29;94637.41;5097515;27;20031;-73
2022/05/28 06:11:17;;;;;;;9.52;5.97;;;;;;;19.45;67.73;94628.75;5131768;27;20034;-72
2022/05/28 06:13:43;;;;;;;10.45;5.50;;;;;;;19.70;66.79;94642.41;5131704;27;20031;-72
2022/05/28 06:16:08;;;;;;;9.93;5.43;;;;;;;19.95;64.94;94651.59;5131801;27;20034;-72
2022/05/28 06:18:34;;;;;;;9.85;5.35;;;;;;;20.16;63.30;94639.38;5131719;27;20027;-73
2022/05/28 06:20:59;;;;;;;9.90;4.85;;;;;;;20.34;62.79;94641.53;5131823;27;20107;-72
2022/05/28 06:23:25;;;;;;;6.53;5.00;;;;;;;20.49;62.75;94629.09;5133250;27;20035;-72
2022/05/28 06:25:51;;;;;;;7.93;4.90;;;;;;;20.69;63.11;94626.59;5132791;27;20261;-72
2022/05/28 06:28:16;;;;;;;8.40;5.00;;;;;;;20.86;60.90;94620.00;5132959;27;20031;-72
2022/05/28 06:30:44;;;;;;;8.43;5.18;;;;;;;21.03;60.79;94609.13;5114618;27;20381;-73
2022/05/28 06:33:10;;;;;;;7.65;4.80;;;;;;;21.18;60.61;94620.38;5132957;27;20042;-72
2022/05/28 06:35:35;;;;;;;6.65;4.65;;;;;;;21.30;60.33;94605.56;5131243;27;20405;-73
2022/05/28 06:38:01;;;;;;;9.52;4.43;;;;;;;21.54;60.42;94611.38;5132359;27;20031;-72
2022/05/28 06:40:27;;;;;;;9.73;4.53;;;;;;;21.59;59.85;94601.00;5097513;27;20031;-72
2022/05/28 06:42:55;;;;;;;8.63;4.78;;;;;;;21.48;60.42;94609.50;5114371;27;20034;-72
2022/05/28 06:45:21;;;;;;;7.97;4.38;;;;;;;21.64;59.48;94594.09;5097710;27;20377;-72
2022/05/28 06:47:46;;;;;;;5.93;4.15;;;;;;;21.61;58.65;94581.28;5114108;27;20031;-72
2022/05/28 06:52:57;;;;;;;9.05;4.55;;;;;;;22.01;56.35;94583.19;5131918;27;20037;-72
2022/05/28 06:55:23;;;;;;;8.13;4.15;;;;;;;21.94;56.00;94569.94;5131209;27;20027;-72
2022/05/28 06:57:48;;;;;;;7.13;3.88;;;;;;;22.05;56.63;94579.09;5130809;27;20066;-72
2022/05/28 07:00:14;;;;;;;9.93;4.40;;;;;;;22.14;56.22;94563.84;5131066;27;20484;-73
2022/05/28 07:02:40;;;;;;;7.72;4.18;;;;;;;22.27;57.28;94554.09;5130981;27;20096;-73
2022/05/28 07:05:05;;;;;;;7.32;4.05;;;;;;;22.38;55.14;94554.50;5131061;27;20034;-72
2022/05/28 07:07:31;;;;;;;7.25;3.92;;;;;;;22.44;55.28;94551.84;5131128;27;20087;-72
2022/05/28 07:09:56;;;;;;;7.75;3.95;;;;;;;22.45;55.59;94544.69;5130762;27;20027;-72
2022/05/28 07:12:22;;;;;;;6.47;3.47;;;;;;;22.44;54.91;94543.88;5130872;27;20458;-72
2022/05/28 07:14:47;;;;;;;9.00;3.67;;;;;;;22.51;53.73;94530.63;5130944;27;20083;-73
2022/05/28 07:17:13;;;;;;;9.70;3.90;;;;;;;22.61;54.48;94531.03;5131036;28;20058;-73
2022/05/28 07:19:38;;;;;;;6.43;3.38;;;;;;;22.73;54.39;94533.84;5130795;28;20019;-72
2022/05/28 07:22:04;;;;;;;6.57;3.70;;;;;;;22.95;53.08;94537.84;5131071;28;20489;-73
2022/05/28 07:24:29;;;;;;;6.80;3.22;;;;;;;22.98;52.44;94531.31;5113758;28;20023;-72
2022/05/28 07:26:54;;;;;;;8.43;3.28;;;;;;;23.08;50.79;94517.66;5130880;28;20096;-73
2022/05/28 07:29:20;;;;;;;6.57;3.10;;;;;;;23.13;50.28;94523.94;5130724;28;20404;-72
2022/05/28 07:31:45;;;;;;;7.72;3.30;;;;;;;23.19;49.80;94512.47;5113736;28;20072;-73
2022/05/28 07:34:11;;;;;;;9.18;3.35;;;;;;;23.38;48.88;94509.94;5130816;28;20080;-73
2022/05/28 07:36:37;;;;;;;9.30;3.42;;;;;;;23.50;48.45;94497.63;5130747;28;20035;-73
2022/05/28 07:39:02;;;;;;;8.18;3.22;;;;;;;23.74;48.52;94503.22;5113522;28;20034;-73
2022/05/28 07:41:28;;;;;;;6.55;3.22;;;;;;;23.99;47.40;94508.50;5096676;28;20053;-73
2022/05/28 07:43:54;;;;;;;8.20;3.45;;;;;;;24.20;46.50;94504.63;5130625;28;20454;-73
2022/05/28 07:46:21;;;;;;;8.57;3.17;;;;;;;24.37;46.34;94497.72;5130794;28;20115;-74
2022/05/28 07:48:47;;;;;;;7.93;3.00;;;;;;;24.61;45.17;94498.72;5113554;28;20084;-73
2022/05/28 07:51:13;;;;;;;7.20;3.28;;;;;;;24.82;46.02;94499.31;5130721;28;20031;-73
2022/05/28 07:53:38;;;;;;;9.00;3.50;;;;;;;25.03;45.55;94492.72;5113485;28;20102;-73
2022/05/28 07:56:04;;;;;;;8.57;3.70;;;;;;;25.29;45.34;94507.53;5131748;27;20416;-73
2022/05/28 07:58:29;;;;;;;7.60;3.42;;;;;;;25.48;44.71;94492.34;5130429;27;20058;-73
2022/05/28 08:00:55;;;;;;;9.20;3.35;;;;;;;25.57;43.60;94496.28;5130707;28;20080;-73
2022/05/28 08:03:21;;;;;;;10.50;3.40;;;;;;;25.66;42.99;94489.63;5130112;28;20044;-73
2022/05/28 08:05:48;;;;;;;7.13;3.90;;;;;;;25.84;42.82;94486.88;5113127;28;20023;-72
2022/05/28 08:08:14;;;;;;;8.20;3.42;;;;;;;26.01;43.65;94487.00;5131957;27;20145;-72
2022/05/28 08:10:40;;;;;;;9.95;4.07;;;;;;;26.19;43.29;94474.66;5117173;27;20121;-73
2022/05/28 08:13:08;;;;;;;6.75;3.80;;;;;;;26.37;42.56;94471.84;5134234;27;20096;-73
2022/05/28 08:15:34;;;;;;;8.98;4.20;;;;;;;26.52;43.29;94471.38;5117420;27;20408;-73
2022/05/28 08:18:00;;;;;;;7.82;4.72;;;;;;;26.69;42.25;94466.97;5116997;27;20066;-72
2022/05/28 08:23:09;;;;;;;10.63;4.28;;;;;;;26.66;41.99;94464.78;5134561;27;20061;-73
2022/05/28 08:25:36;;;;;;;8.85;4.60;;;;;;;26.54;43.18;94463.19;5134064;27;20476;-73
2022/05/28 08:28:01;;;;;;;8.35;4.80;;;;;;;26.57;42.80;94463.50;5116954;27;20047;-73
2022/05/28 08:30:27;;;;;;;9.52;5.00;;;;;;;26.67;42.67;94470.91;5116869;27;20115;-73
2022/05/28 08:32:52;;;;;;;12.77;5.13;;;;;;;26.60;43.58;94473.69;5134063;27;20038;-73
2022/05/28 08:35:18;;;;;;;8.77;5.15;;;;;;;26.61;41.66;94467.34;5134049;27;20027;-73
2022/05/28 08:37:43;;;;;;;14.05;4.30;;;;;;;26.81;42.22;94469.59;5133710;27;20053;-73
2022/05/28 08:40:10;;;;;;;8.98;3.85;;;;;;;26.87;41.13;94462.50;5135115;27;20476;-73
2022/05/28 08:42:36;;;;;;;9.63;3.35;;;;;;;27.12;40.33;94460.34;5133740;27;20472;-73
2022/05/28 08:45:03;;;;;;;9.80;3.60;;;;;;;27.29;40.18;94462.25;5133764;27;20100;-73
2022/05/28 08:47:30;;;;;;;9.40;3.65;;;;;;;27.21;40.22;94457.31;5099440;27;20039;-73
2022/05/28 08:49:55;;;;;;;9.45;3.65;;;;;;;27.32;39.92;94464.44;5099648;27;20072;-73
2022/05/28 08:52:35;;;;;;;7.65;3.78;;;;;;;27.42;39.97;94459.31;5133731;27;20480;-73
2022/05/28 08:55:07;;;;;;;8.70;3.85;;;;;;;27.52;39.24;94453.31;5133597;27;20114;-73
2022/05/28 08:57:54;;;;;;;9.00;3.60;;;;;;;27.51;39.69;94454.38;5133224;27;20046;-73
2022/05/28 09:00:40;;;;;;;11.35;4.40;;;;;;;27.55;39.39;94459.00;5116916;27;20031;-73
2022/05/28 09:03:27;;;;;;;9.52;4.13;;;;;;;27.56;39.80;94449.94;5133049;27;20074;-73
2022/05/28 09:06:06;;;;;;;10.25;3.97;;;;;;;27.48;40.58;94449.53;5132861;27;20061;-73
2022/05/28 09:08:41;;;;;;;6.47;3.65;;;;;;;27.54;40.84;94449.38;5133513;27;20118;-73
2022/05/28 09:11:14;;;;;;;7.32;3.88;;;;;;;27.37;40.80;94441.34;5133057;27;20019;-73
2022/05/28 09:13:53;;;;;;;9.98;3.97;;;;;;;27.55;40.65;94439.50;5116533;27;20034;-73
2022/05/28 09:16:24;;;;;;;13.63;4.70;;;;;;;27.56;40.53;94438.47;5133125;27;20033;-73
2022/05/28 09:18:50;;;;;;;12.77;4.53;;;;;;;27.45;41.12;94437.50;5134218;27;20099;-73
2022/05/28 09:21:16;;;;;;;11.02;4.28;;;;;;;27.61;40.86;94436.69;5132849;27;20027;-73
2022/05/28 09:23:45;;;;;;;11.77;4.68;;;;;;;27.55;40.70;94443.00;5115635;27;20053;-73
2022/05/28 09:26:11;;;;;;;9.65;3.80;;;;;;;27.59;39.84;94438.00;5115590;27;20031;-73
2022/05/28 09:28:46;;;;;;;12.02;4.50;;;;;;;27.53;39.61;94436.28;5132666;27;20031;-73
2022/05/28 09:31:31;;;;;;;8.63;4.15;;;;;;;27.43;40.35;94438.78;5132916;27;20080;-73
2022/05/28 09:34:08;;;;;;;12.43;4.38;;;;;;;27.44;41.56;94440.38;5132820;27;20057;-73
2022/05/28 09:36:49;;;;;;;9.93;4.78;;;;;;;27.46;40.86;94430.28;5132634;27;20038;-73
2022/05/28 09:39:25;;;;;;;14.57;4.60;;;;;;;27.49;41.63;94424.47;5132912;27;20016;-73
2022/05/28 09:42:11;;;;;;;8.80;4.50;;;;;;;27.45;40.65;94420.69;5133969;27;20405;-73
2022/05/28 09:45:01;;;;;;;10.82;4.65;;;;;;;27.48;40.33;94415.66;5116956;27;20034;-73
2022/05/28 09:47:27;;;;;;;13.45;5.22;;;;;;;27.56;41.07;94409.13;5133680;27;20066;-73
2022/05/28 09:49:54;;;;;;;13.35;4.50;;;;;;;27.66;40.66;94409.28;5133548;27;20482;-72
2022/05/28 09:52:24;;;;;;;11.98;4.43;;;;;;;27.78;40.54;94409.22;5132301;27;20401;-73
2022/05/28 09:54:49;;;;;;;7.40;4.30;;;;;;;27.77;40.00;94413.72;5115113;27;20474;-73
2022/05/28 09:57:26;;;;;;;11.57;4.63;;;;;;;27.66;40.37;94405.81;5133698;27;20035;-73
2022/05/28 09:59:56;;;;;;;8.55;4.40;;;;;;;27.67;40.58;94407.44;5132068;27;20106;-73
2022/05/28 10:02:25;;;;;;;9.68;4.20;;;;;;;27.62;38.93;94405.50;5133082;27;20043;-73
2022/05/28 10:04:52;;;;;;;10.55;5.00;;;;;;;27.42;39.67;94400.63;5132236;27;20035;-73
2022/05/28 10:07:38;;;;;;;11.43;4.90;;;;;;;27.40;40.09;94397.41;5131740;27;20035;-73
2022/05/28 10:10:38;;;;;;;7.75;4.78;;;;;;;27.20;40.26;94389.88;5116155;27;20112;-72
2022/05/28 10:13:12;;;;;;;9.57;4.53;;;;;;;27.02;40.39;94390.84;5133251;27;20501;-73
2022/05/28 10:15:39;;;;;;;9.75;4.45;;;;;;;27.07;40.81;94377.63;5114595;27;20081;-72
2022/05/28 10:18:09;;;;;;;9.85;4.30;;;;;;;27.18;40.40;94389.28;5114780;27;20034;-73
2022/05/28 10:20:35;;;;;;;9.70;4.65;;;;;;;27.20;41.05;94381.06;5097655;27;20027;-73
2022/05/28 10:23:02;;;;;;;14.30;4.75;;;;;;;27.16;40.77;94384.22;5131541;27;20027;-73
2022/05/28 10:25:31;;;;;;;12.45;4.68;;;;;;;27.23;40.10;94370.72;5131354;27;20035;-72
2022/05/28 10:27:57;;;;;;;14.75;4.35;;;;;;;27.38;39.91;94375.50;5131570;27;20031;-73
2022/05/28 10:30:44;;;;;;;11.43;4.70;;;;;;;27.42;38.99;94368.63;5114207;27;20167;-72
2022/05/28 10:33:20;;;;;;;11.48;3.95;;;;;;;27.36;38.98;94364.28;5116410;27;20055;-72
2022/05/28 10:35:46;;;;;;;11.00;4.57;;;;;;;27.25;38.72;94367.84;5131282;27;20023;-73
2022/05/28 10:38:12;;;;;;;11.60;4.43;;;;;;;27.02;39.11;94364.19;5131491;27;20166;-73
2022/05/28 10:40:49;;;;;;;8.88;3.97;;;;;;;26.98;37.94;94359.59;5132534;27;20023;-73
2022/05/28 10:43:29;;;;;;;10.38;4.45;;;;;;;27.22;38.10;94373.63;5131067;27;20499;-72
2022/05/28 10:46:16;;;;;;;9.23;3.67;;;;;;;27.02;39.28;94361.53;5131151;27;20023;-73
2022/05/28 10:48:41;;;;;;;12.50;4.40;;;;;;;27.17;38.90;94356.50;5132200;27;20481;-72
2022/05/28 10:51:48;;;;;;;12.02;4.22;;;;;;;27.46;37.48;94355.63;5132341;27;20031;-73
2022/05/28 10:54:35;;;;;;;13.10;4.63;;;;;;;27.57;37.57;94350.19;5111560;27;20043;-73
2022/05/28 10:57:24;;;;;;;14.30;4.78;;;;;;;27.68;37.53;94343.16;5132185;27;20027;-73
2022/05/28 10:59:55;;;;;;;11.55;4.30;;;;;;;27.86;37.51;94344.78;5130858;27;20047;-73
2022/05/28 11:02:39;;;;;;;14.52;4.13;;;;;;;27.92;36.39;94341.13;5131769;27;20127;-73
2022/05/28 11:05:36;;;;;;;12.35;4.20;;;;;;;28.00;36.71;94335.38;5131957;27;20497;-72
2022/05/28 11:08:08;;;;;;;14.27;4.22;;;;;;;28.13;37.16;94333.38;5132297;27;20511;-73
2022/05/28 11:10:52;;;;;;;9.55;4.90;;;;;;;28.10;38.13;94326.69;5131902;27;20027;-73
2022/05/28 11:13:30;;;;;;;12.38;4.90;;;;;;;28.18;36.88;94325.44;5131794;27;20031;-73
2022/05/28 11:16:14;;;;;;;11.93;4.70;;;;;;;27.89;37.95;94319.44;5131037;28;20113;-72
2022/05/28 11:19:00;;;;;;;14.55;4.90;;;;;;;28.03;38.03;94324.19;5131794;27;20497;-73
2022/05/28 11:21:49;;;;;;;11.90;4.45;;;;;;;28.08;36.84;94315.44;5131968;27;20027;-72
2022/05/28 11:24:29;;;;;;;13.48;4.60;;;;;;;28.19;38.43;94309.16;5111020;27;20039;-73
2022/05/28 11:27:05;;;;;;;;;;;;;;;28.22;38.06;94302.50;5132455;27;20039;-73
2022/05/28 11:30:00;;;;;;;12.43;5.00;;;;;;;28.10;38.46;94291.16;5113454;28;20372;-72
2022/05/28 11:33:05;;;;;;;9.52;4.80;;;;;;;27.95;38.45;94291.78;5126032;28;20047;-72
2022/05/28 11:36:06;;;;;;;13.60;5.05;;;;;;;27.69;38.63;94287.94;5121863;28;20126;-73
2022/05/28 11:38:32;;;;;;;11.80;4.88;;;;;;;27.47;39.15;94291.38;5108641;27;20039;-73
2022/05/28 11:41:04;;;;;;;18.58;5.43;;;;;;;27.44;41.02;94299.03;5113318;28;20149;-73
2022/05/28 11:43:40;;;;;;;13.32;4.78;;;;;;;27.41;40.31;94297.69;5116332;27;20031;-73
2022/05/28 11:46:33;;;;;;;14.40;5.15;;;;;;;27.32;40.57;94302.63;5135748;27;20028;-73